sensor_id;sensor_type;location;lat;lon;timestamp;P1;durP1;ratioP1;P2;durP2;ratioP2
19537;SDS011;9914;51.008;4.300;2023-09-30T00:01:00;1999.90;;;999.90;;
19537;SDS011;9914;51.008;4.300;2023-09-30T00:03:26;1999.90;;;999.90;;
19537;SDS011;9914;51.008;4.300;2023-09-30T00:05:53;1999.90;;;999.90;;
19537;SDS011;9914;51.008;4.300;2023-09-30T00:08:18;1999.90;;;999.90;;
19537;SDS011;9914;51.008;4.300;2023-09-30T00:10:44;1999.90;;;999.90;;
19537;SDS011;9914;51.008;4.300;2023-09-30T00:13:11;1999.90;;;999.90;;
19537;SDS011;9914;51.008;4.300;2023-09-30T00:15:37;1999.90;;;999.90;;
19537;SDS011;9914;51.008;4.300;2023-09-30T00:18:03;1999.90;;;999.90;;
19537;SDS011;9914;51.008;4.300;2023-09-30T00:20:30;1999.90;;;999.90;;
19537;SDS011;9914;51.008;4.300;2023-09-30T00:22:55;1999.90;;;999.90;;
19537;SDS011;9914;51.008;4.300;2023-09-30T00:25:21;1999.90;;;999.90;;
19537;SDS011;9914;51.008;4.300;2023-09-30T00:27:47;1999.90;;;999.90;;
19537;SDS011;9914;51.008;4.300;2023-09-30T00:30:13;1999.90;;;999.90;;
19537;SDS011;9914;51.008;4.300;2023-09-30T00:32:39;1999.90;;;999.90;;
19537;SDS011;9914;51.008;4.300;2023-09-30T00:35:05;1999.90;;;999.90;;
19537;SDS011;9914;51.008;4.300;2023-09-30T00:37:37;1999.90;;;999.90;;
19537;SDS011;9914;51.008;4.300;2023-09-30T00:40:03;1999.90;;;999.90;;
19537;SDS011;9914;51.008;4.300;2023-09-30T00:42:30;1999.90;;;999.90;;
19537;SDS011;9914;51.008;4.300;2023-09-30T00:44:55;1999.90;;;999.90;;
19537;SDS011;9914;51.008;4.300;2023-09-30T00:47:21;1999.90;;;999.90;;
19537;SDS011;9914;51.008;4.300;2023-09-30T00:49:49;1999.90;;;999.90;;
19537;SDS011;9914;51.008;4.300;2023-09-30T00:52:15;1999.90;;;999.90;;
19537;SDS011;9914;51.008;4.300;2023-09-30T00:54:42;1999.90;;;999.90;;
19537;SDS011;9914;51.008;4.300;2023-09-30T00:57:08;1999.90;;;999.90;;
19537;SDS011;9914;51.008;4.300;2023-09-30T00:59:35;1999.90;;;999.90;;
19537;SDS011;9914;51.008;4.300;2023-09-30T01:02:01;1999.90;;;999.90;;
19537;SDS011;9914;51.008;4.300;2023-09-30T01:04:27;1999.90;;;999.90;;
19537;SDS011;9914;51.008;4.300;2023-09-30T01:06:53;1999.90;;;999.90;;
19537;SDS011;9914;51.008;4.300;2023-09-30T01:09:20;1999.90;;;999.90;;
19537;SDS011;9914;51.008;4.300;2023-09-30T01:11:46;1999.90;;;999.90;;
19537;SDS011;9914;51.008;4.300;2023-09-30T01:14:24;1999.90;;;999.90;;
19537;SDS011;9914;51.008;4.300;2023-09-30T01:16:57;1999.90;;;999.90;;
19537;SDS011;9914;51.008;4.300;2023-09-30T01:19:23;1999.90;;;999.90;;
19537;SDS011;9914;51.008;4.300;2023-09-30T01:21:58;1999.90;;;999.90;;
19537;SDS011;9914;51.008;4.300;2023-09-30T01:24:25;1999.90;;;999.90;;
19537;SDS011;9914;51.008;4.300;2023-09-30T01:26:51;1999.90;;;999.90;;
19537;SDS011;9914;51.008;4.300;2023-09-30T01:29:17;1999.90;;;999.90;;
19537;SDS011;9914;51.008;4.300;2023-09-30T01:31:43;1999.90;;;999.90;;
19537;SDS011;9914;51.008;4.300;2023-09-30T01:34:13;1999.90;;;999.90;;
19537;SDS011;9914;51.008;4.300;2023-09-30T01:36:39;1999.90;;;999.90;;
19537;SDS011;9914;51.008;4.300;2023-09-30T01:39:04;1999.90;;;999.90;;
19537;SDS011;9914;51.008;4.300;2023-09-30T01:41:32;1999.90;;;999.90;;
19537;SDS011;9914;51.008;4.300;2023-09-30T01:43:58;1999.90;;;999.90;;
19537;SDS011;9914;51.008;4.300;2023-09-30T01:46:23;1999.90;;;999.90;;
19537;SDS011;9914;51.008;4.300;2023-09-30T01:48:49;1999.90;;;999.90;;
19537;SDS011;9914;51.008;4.300;2023-09-30T01:51:14;1999.90;;;999.90;;
19537;SDS011;9914;51.008;4.300;2023-09-30T01:53:40;1999.90;;;999.90;;
19537;SDS011;9914;51.008;4.300;2023-09-30T01:56:06;1999.90;;;999.90;;
19537;SDS011;9914;51.008;4.300;2023-09-30T01:58:32;1999.90;;;999.90;;
19537;SDS011;9914;51.008;4.300;2023-09-30T02:01:03;1999.90;;;999.90;;
19537;SDS011;9914;51.008;4.300;2023-09-30T02:03:29;1999.90;;;999.90;;
19537;SDS011;9914;51.008;4.300;2023-09-30T02:05:55;1999.90;;;999.90;;
19537;SDS011;9914;51.008;4.300;2023-09-30T02:08:22;1999.90;;;999.90;;
19537;SDS011;9914;51.008;4.300;2023-09-30T02:10:49;1999.90;;;999.90;;
19537;SDS011;9914;51.008;4.300;2023-09-30T02:13:16;1999.90;;;999.90;;
19537;SDS011;9914;51.008;4.300;2023-09-30T02:15:42;1999.90;;;999.90;;
19537;SDS011;9914;51.008;4.300;2023-09-30T02:18:08;1999.90;;;999.90;;
19537;SDS011;9914;51.008;4.300;2023-09-30T02:20:34;1999.90;;;999.90;;
19537;SDS011;9914;51.008;4.300;2023-09-30T02:23:04;1999.90;;;999.90;;
19537;SDS011;9914;51.008;4.300;2023-09-30T02:25:31;1999.90;;;999.90;;
19537;SDS011;9914;51.008;4.300;2023-09-30T02:27:57;1999.90;;;999.90;;
19537;SDS011;9914;51.008;4.300;2023-09-30T02:30:22;1999.90;;;999.90;;
19537;SDS011;9914;51.008;4.300;2023-09-30T02:32:49;1999.90;;;999.90;;
19537;SDS011;9914;51.008;4.300;2023-09-30T02:35:14;1999.90;;;999.90;;
19537;SDS011;9914;51.008;4.300;2023-09-30T02:37:40;1999.90;;;999.90;;
19537;SDS011;9914;51.008;4.300;2023-09-30T02:40:06;1999.90;;;999.90;;
19537;SDS011;9914;51.008;4.300;2023-09-30T02:42:35;1999.90;;;999.90;;
19537;SDS011;9914;51.008;4.300;2023-09-30T02:45:05;1999.90;;;999.90;;
19537;SDS011;9914;51.008;4.300;2023-09-30T02:47:33;1999.90;;;999.90;;
19537;SDS011;9914;51.008;4.300;2023-09-30T02:49:59;1999.90;;;999.90;;
19537;SDS011;9914;51.008;4.300;2023-09-30T02:52:25;1999.90;;;999.90;;
19537;SDS011;9914;51.008;4.300;2023-09-30T02:54:52;1999.90;;;999.90;;
19537;SDS011;9914;51.008;4.300;2023-09-30T02:57:18;1999.90;;;999.90;;
19537;SDS011;9914;51.008;4.300;2023-09-30T02:59:44;1999.90;;;999.90;;
19537;SDS011;9914;51.008;4.300;2023-09-30T03:02:10;1999.90;;;999.90;;
19537;SDS011;9914;51.008;4.300;2023-09-30T03:04:40;1999.90;;;999.90;;
19537;SDS011;9914;51.008;4.300;2023-09-30T03:07:07;1999.90;;;999.90;;
19537;SDS011;9914;51.008;4.300;2023-09-30T03:09:33;1999.90;;;999.90;;
19537;SDS011;9914;51.008;4.300;2023-09-30T03:11:59;1999.90;;;999.90;;
19537;SDS011;9914;51.008;4.300;2023-09-30T03:14:25;1999.90;;;999.90;;
19537;SDS011;9914;51.008;4.300;2023-09-30T03:16:51;1999.90;;;999.90;;
19537;SDS011;9914;51.008;4.300;2023-09-30T03:19:17;1999.90;;;999.90;;
19537;SDS011;9914;51.008;4.300;2023-09-30T03:21:42;1999.90;;;999.90;;
19537;SDS011;9914;51.008;4.300;2023-09-30T03:24:09;1999.90;;;999.90;;
19537;SDS011;9914;51.008;4.300;2023-09-30T03:26:34;1999.90;;;999.90;;
19537;SDS011;9914;51.008;4.300;2023-09-30T03:29:00;1999.90;;;999.90;;
19537;SDS011;9914;51.008;4.300;2023-09-30T03:31:26;1999.90;;;999.90;;
19537;SDS011;9914;51.008;4.300;2023-09-30T03:33:52;1999.90;;;999.90;;
19537;SDS011;9914;51.008;4.300;2023-09-30T03:36:21;1999.90;;;999.90;;
19537;SDS011;9914;51.008;4.300;2023-09-30T03:38:50;1999.90;;;999.90;;
19537;SDS011;9914;51.008;4.300;2023-09-30T03:41:20;1999.90;;;999.90;;
19537;SDS011;9914;51.008;4.300;2023-09-30T03:43:46;1999.90;;;999.90;;
19537;SDS011;9914;51.008;4.300;2023-09-30T03:46:14;1999.90;;;999.90;;
19537;SDS011;9914;51.008;4.300;2023-09-30T03:48:40;1999.90;;;999.90;;
19537;SDS011;9914;51.008;4.300;2023-09-30T03:51:14;1999.90;;;999.90;;
19537;SDS011;9914;51.008;4.300;2023-09-30T03:53:43;1999.90;;;999.90;;
19537;SDS011;9914;51.008;4.300;2023-09-30T03:56:10;1999.90;;;999.90;;
19537;SDS011;9914;51.008;4.300;2023-09-30T03:58:42;1999.90;;;999.90;;
19537;SDS011;9914;51.008;4.300;2023-09-30T04:01:08;1999.90;;;999.90;;
19537;SDS011;9914;51.008;4.300;2023-09-30T04:03:36;1999.90;;;999.90;;
19537;SDS011;9914;51.008;4.300;2023-09-30T04:06:04;1999.90;;;999.90;;
19537;SDS011;9914;51.008;4.300;2023-09-30T04:08:31;1999.90;;;999.90;;
19537;SDS011;9914;51.008;4.300;2023-09-30T04:10:58;1999.90;;;999.90;;
19537;SDS011;9914;51.008;4.300;2023-09-30T04:13:25;1999.90;;;999.90;;
19537;SDS011;9914;51.008;4.300;2023-09-30T04:15:51;1999.90;;;999.90;;
19537;SDS011;9914;51.008;4.300;2023-09-30T04:18:16;1999.90;;;999.90;;
19537;SDS011;9914;51.008;4.300;2023-09-30T04:20:45;1999.90;;;999.90;;
19537;SDS011;9914;51.008;4.300;2023-09-30T04:23:11;1999.90;;;999.90;;
19537;SDS011;9914;51.008;4.300;2023-09-30T04:25:38;1999.90;;;999.90;;
19537;SDS011;9914;51.008;4.300;2023-09-30T04:28:05;1999.90;;;999.90;;
19537;SDS011;9914;51.008;4.300;2023-09-30T04:30:30;1999.90;;;999.90;;
19537;SDS011;9914;51.008;4.300;2023-09-30T04:32:58;1999.90;;;999.90;;
19537;SDS011;9914;51.008;4.300;2023-09-30T04:35:24;1999.90;;;999.90;;
19537;SDS011;9914;51.008;4.300;2023-09-30T04:37:51;1999.90;;;999.90;;
19537;SDS011;9914;51.008;4.300;2023-09-30T04:40:17;1999.90;;;999.90;;
19537;SDS011;9914;51.008;4.300;2023-09-30T04:42:46;1999.90;;;999.90;;
19537;SDS011;9914;51.008;4.300;2023-09-30T04:45:13;1999.90;;;999.90;;
19537;SDS011;9914;51.008;4.300;2023-09-30T04:47:41;1999.90;;;999.90;;
19537;SDS011;9914;51.008;4.300;2023-09-30T04:50:09;1999.90;;;999.90;;
19537;SDS011;9914;51.008;4.300;2023-09-30T04:52:36;1999.90;;;999.90;;
19537;SDS011;9914;51.008;4.300;2023-09-30T04:55:04;1999.90;;;999.90;;
19537;SDS011;9914;51.008;4.300;2023-09-30T04:57:30;1999.90;;;999.90;;
19537;SDS011;9914;51.008;4.300;2023-09-30T04:59:56;1999.90;;;999.90;;
19537;SDS011;9914;51.008;4.300;2023-09-30T05:02:26;1999.90;;;999.90;;
19537;SDS011;9914;51.008;4.300;2023-09-30T05:04:52;1999.90;;;999.90;;
19537;SDS011;9914;51.008;4.300;2023-09-30T05:07:19;1999.90;;;999.90;;
19537;SDS011;9914;51.008;4.300;2023-09-30T05:09:48;1999.90;;;999.90;;
19537;SDS011;9914;51.008;4.300;2023-09-30T05:12:13;1999.90;;;999.90;;
19537;SDS011;9914;51.008;4.300;2023-09-30T05:14:41;1999.90;;;999.90;;
19537;SDS011;9914;51.008;4.300;2023-09-30T05:17:06;1999.90;;;999.90;;
19537;SDS011;9914;51.008;4.300;2023-09-30T05:19:33;1999.90;;;999.90;;
19537;SDS011;9914;51.008;4.300;2023-09-30T05:21:58;1999.90;;;999.90;;
19537;SDS011;9914;51.008;4.300;2023-09-30T05:24:26;1999.90;;;999.90;;
19537;SDS011;9914;51.008;4.300;2023-09-30T05:26:55;1999.90;;;999.90;;
19537;SDS011;9914;51.008;4.300;2023-09-30T05:29:20;1999.90;;;999.90;;
19537;SDS011;9914;51.008;4.300;2023-09-30T05:31:47;1999.90;;;999.90;;
19537;SDS011;9914;51.008;4.300;2023-09-30T05:34:12;1999.90;;;999.90;;
19537;SDS011;9914;51.008;4.300;2023-09-30T05:36:38;1999.90;;;999.90;;
19537;SDS011;9914;51.008;4.300;2023-09-30T05:39:04;1999.90;;;999.90;;
19537;SDS011;9914;51.008;4.300;2023-09-30T05:41:33;1999.90;;;999.90;;
19537;SDS011;9914;51.008;4.300;2023-09-30T05:43:58;1999.90;;;999.90;;
19537;SDS011;9914;51.008;4.300;2023-09-30T05:46:24;1999.90;;;999.90;;
19537;SDS011;9914;51.008;4.300;2023-09-30T05:48:52;1999.90;;;999.90;;
19537;SDS011;9914;51.008;4.300;2023-09-30T05:51:18;1999.90;;;999.90;;
19537;SDS011;9914;51.008;4.300;2023-09-30T05:53:44;1999.90;;;999.90;;
19537;SDS011;9914;51.008;4.300;2023-09-30T05:56:12;1999.90;;;999.90;;
19537;SDS011;9914;51.008;4.300;2023-09-30T05:58:40;1999.90;;;999.90;;
19537;SDS011;9914;51.008;4.300;2023-09-30T06:01:08;1999.90;;;999.90;;
19537;SDS011;9914;51.008;4.300;2023-09-30T06:03:37;1999.90;;;999.90;;
19537;SDS011;9914;51.008;4.300;2023-09-30T06:06:12;1999.90;;;999.90;;
19537;SDS011;9914;51.008;4.300;2023-09-30T06:08:39;1999.90;;;999.90;;
19537;SDS011;9914;51.008;4.300;2023-09-30T06:11:04;1999.90;;;999.90;;
19537;SDS011;9914;51.008;4.300;2023-09-30T06:13:31;1999.90;;;999.90;;
19537;SDS011;9914;51.008;4.300;2023-09-30T06:15:58;1999.90;;;999.90;;
19537;SDS011;9914;51.008;4.300;2023-09-30T06:18:24;1999.90;;;999.90;;
19537;SDS011;9914;51.008;4.300;2023-09-30T06:20:50;1999.90;;;999.90;;
19537;SDS011;9914;51.008;4.300;2023-09-30T06:23:16;1999.90;;;999.90;;
19537;SDS011;9914;51.008;4.300;2023-09-30T06:25:42;1999.90;;;999.90;;
19537;SDS011;9914;51.008;4.300;2023-09-30T06:28:08;1999.90;;;999.90;;
19537;SDS011;9914;51.008;4.300;2023-09-30T06:30:33;1999.90;;;999.90;;
19537;SDS011;9914;51.008;4.300;2023-09-30T06:33:00;1999.90;;;999.90;;
19537;SDS011;9914;51.008;4.300;2023-09-30T06:35:26;1999.90;;;999.90;;
19537;SDS011;9914;51.008;4.300;2023-09-30T06:37:52;1999.90;;;999.90;;
19537;SDS011;9914;51.008;4.300;2023-09-30T06:40:18;1999.90;;;999.90;;
19537;SDS011;9914;51.008;4.300;2023-09-30T06:42:44;1999.90;;;999.90;;
19537;SDS011;9914;51.008;4.300;2023-09-30T06:45:10;1999.90;;;999.90;;
19537;SDS011;9914;51.008;4.300;2023-09-30T06:47:37;1999.90;;;999.90;;
19537;SDS011;9914;51.008;4.300;2023-09-30T06:50:05;1999.90;;;999.90;;
19537;SDS011;9914;51.008;4.300;2023-09-30T06:52:39;1999.90;;;999.90;;
19537;SDS011;9914;51.008;4.300;2023-09-30T06:55:06;1999.90;;;999.90;;
19537;SDS011;9914;51.008;4.300;2023-09-30T06:57:33;1999.90;;;999.90;;
19537;SDS011;9914;51.008;4.300;2023-09-30T07:00:00;1999.90;;;999.90;;
19537;SDS011;9914;51.008;4.300;2023-09-30T07:02:29;1999.90;;;999.90;;
19537;SDS011;9914;51.008;4.300;2023-09-30T07:04:55;1999.90;;;999.90;;
19537;SDS011;9914;51.008;4.300;2023-09-30T07:07:21;1999.90;;;999.90;;
19537;SDS011;9914;51.008;4.300;2023-09-30T07:09:46;1999.90;;;999.90;;
19537;SDS011;9914;51.008;4.300;2023-09-30T07:12:13;1999.90;;;999.90;;
19537;SDS011;9914;51.008;4.300;2023-09-30T07:14:38;1999.90;;;999.90;;
19537;SDS011;9914;51.008;4.300;2023-09-30T07:17:04;1999.90;;;999.90;;
19537;SDS011;9914;51.008;4.300;2023-09-30T07:19:29;1999.90;;;999.90;;
19537;SDS011;9914;51.008;4.300;2023-09-30T07:21:56;1999.90;;;999.90;;
19537;SDS011;9914;51.008;4.300;2023-09-30T07:24:21;1999.90;;;999.90;;
19537;SDS011;9914;51.008;4.300;2023-09-30T07:26:47;1999.90;;;999.90;;
19537;SDS011;9914;51.008;4.300;2023-09-30T07:29:13;1999.90;;;999.90;;
19537;SDS011;9914;51.008;4.300;2023-09-30T07:31:38;1999.90;;;999.90;;
19537;SDS011;9914;51.008;4.300;2023-09-30T07:34:04;1999.90;;;999.90;;
19537;SDS011;9914;51.008;4.300;2023-09-30T07:36:30;1999.90;;;999.90;;
19537;SDS011;9914;51.008;4.300;2023-09-30T07:38:55;1999.90;;;999.90;;
19537;SDS011;9914;51.008;4.300;2023-09-30T07:41:21;1999.90;;;999.90;;
19537;SDS011;9914;51.008;4.300;2023-09-30T07:43:47;1999.90;;;999.90;;
19537;SDS011;9914;51.008;4.300;2023-09-30T07:46:12;1999.90;;;999.90;;
19537;SDS011;9914;51.008;4.300;2023-09-30T07:48:40;1999.90;;;999.90;;
19537;SDS011;9914;51.008;4.300;2023-09-30T07:51:06;1999.90;;;999.90;;
19537;SDS011;9914;51.008;4.300;2023-09-30T07:53:35;1999.90;;;999.90;;
19537;SDS011;9914;51.008;4.300;2023-09-30T07:56:00;1999.90;;;999.90;;
19537;SDS011;9914;51.008;4.300;2023-09-30T07:58:26;1999.90;;;999.90;;
19537;SDS011;9914;51.008;4.300;2023-09-30T08:00:52;1999.90;;;999.90;;
19537;SDS011;9914;51.008;4.300;2023-09-30T08:03:18;1999.90;;;999.90;;
19537;SDS011;9914;51.008;4.300;2023-09-30T08:05:44;1999.90;;;999.90;;
19537;SDS011;9914;51.008;4.300;2023-09-30T08:08:11;1999.90;;;999.90;;
19537;SDS011;9914;51.008;4.300;2023-09-30T08:10:37;1999.90;;;999.90;;
19537;SDS011;9914;51.008;4.300;2023-09-30T08:13:03;1999.90;;;999.90;;
19537;SDS011;9914;51.008;4.300;2023-09-30T08:15:29;1999.90;;;999.90;;
19537;SDS011;9914;51.008;4.300;2023-09-30T08:17:55;1999.90;;;999.90;;
19537;SDS011;9914;51.008;4.300;2023-09-30T08:20:21;1999.90;;;999.90;;
19537;SDS011;9914;51.008;4.300;2023-09-30T08:22:47;1999.90;;;999.90;;
19537;SDS011;9914;51.008;4.300;2023-09-30T08:25:13;1999.90;;;999.90;;
19537;SDS011;9914;51.008;4.300;2023-09-30T08:27:39;1999.90;;;999.90;;
19537;SDS011;9914;51.008;4.300;2023-09-30T08:30:05;1999.90;;;999.90;;
19537;SDS011;9914;51.008;4.300;2023-09-30T08:32:34;1999.90;;;999.90;;
19537;SDS011;9914;51.008;4.300;2023-09-30T08:35:04;1999.90;;;999.90;;
19537;SDS011;9914;51.008;4.300;2023-09-30T08:37:30;1999.90;;;999.90;;
19537;SDS011;9914;51.008;4.300;2023-09-30T08:39:56;1999.90;;;999.90;;
19537;SDS011;9914;51.008;4.300;2023-09-30T08:42:22;1999.90;;;999.90;;
19537;SDS011;9914;51.008;4.300;2023-09-30T08:44:50;1999.90;;;999.90;;
19537;SDS011;9914;51.008;4.300;2023-09-30T08:47:19;1999.90;;;999.90;;
19537;SDS011;9914;51.008;4.300;2023-09-30T08:49:45;1999.90;;;999.90;;
19537;SDS011;9914;51.008;4.300;2023-09-30T08:52:13;1999.90;;;999.90;;
19537;SDS011;9914;51.008;4.300;2023-09-30T08:54:40;1999.90;;;999.90;;
19537;SDS011;9914;51.008;4.300;2023-09-30T08:57:05;1999.90;;;999.90;;
19537;SDS011;9914;51.008;4.300;2023-09-30T08:59:35;1999.90;;;999.90;;
19537;SDS011;9914;51.008;4.300;2023-09-30T09:02:06;1999.90;;;999.90;;
19537;SDS011;9914;51.008;4.300;2023-09-30T09:04:33;1999.90;;;999.90;;
19537;SDS011;9914;51.008;4.300;2023-09-30T09:06:59;1999.90;;;999.90;;
19537;SDS011;9914;51.008;4.300;2023-09-30T09:09:24;1999.90;;;999.90;;
19537;SDS011;9914;51.008;4.300;2023-09-30T09:11:50;1999.90;;;999.90;;
19537;SDS011;9914;51.008;4.300;2023-09-30T09:14:16;1999.90;;;999.90;;
19537;SDS011;9914;51.008;4.300;2023-09-30T09:16:52;1999.90;;;999.90;;
19537;SDS011;9914;51.008;4.300;2023-09-30T09:19:19;1999.90;;;999.90;;
19537;SDS011;9914;51.008;4.300;2023-09-30T09:21:53;1999.90;;;999.90;;
19537;SDS011;9914;51.008;4.300;2023-09-30T09:24:44;1999.90;;;999.90;;
19537;SDS011;9914;51.008;4.300;2023-09-30T09:27:12;1999.90;;;999.90;;
19537;SDS011;9914;51.008;4.300;2023-09-30T09:29:41;1999.90;;;999.90;;
19537;SDS011;9914;51.008;4.300;2023-09-30T09:32:15;1999.90;;;999.90;;
19537;SDS011;9914;51.008;4.300;2023-09-30T09:34:42;1999.90;;;999.90;;
19537;SDS011;9914;51.008;4.300;2023-09-30T09:37:13;1999.90;;;999.90;;
19537;SDS011;9914;51.008;4.300;2023-09-30T09:39:55;1999.90;;;999.90;;
19537;SDS011;9914;51.008;4.300;2023-09-30T09:42:25;1999.90;;;999.90;;
19537;SDS011;9914;51.008;4.300;2023-09-30T09:44:54;1999.90;;;999.90;;
19537;SDS011;9914;51.008;4.300;2023-09-30T09:47:22;1139.23;;;999.90;;
19537;SDS011;9914;51.008;4.300;2023-09-30T09:49:48;1368.13;;;984.70;;
19537;SDS011;9914;51.008;4.300;2023-09-30T09:52:15;1065.90;;;988.77;;
19537;SDS011;9914;51.008;4.300;2023-09-30T09:54:43;1373.53;;;987.00;;
19537;SDS011;9914;51.008;4.300;2023-09-30T09:57:09;1230.80;;;999.90;;
19537;SDS011;9914;51.008;4.300;2023-09-30T09:59:38;982.40;;;920.57;;
19537;SDS011;9914;51.008;4.300;2023-09-30T10:02:09;960.67;;;900.07;;
19537;SDS011;9914;51.008;4.300;2023-09-30T10:04:37;951.47;;;892.90;;
19537;SDS011;9914;51.008;4.300;2023-09-30T10:07:03;1112.47;;;999.90;;
19537;SDS011;9914;51.008;4.300;2023-09-30T10:09:30;1085.37;;;995.93;;
19537;SDS011;9914;51.008;4.300;2023-09-30T10:12:00;1009.20;;;938.73;;
19537;SDS011;9914;51.008;4.300;2023-09-30T10:14:33;961.80;;;901.70;;
19537;SDS011;9914;51.008;4.300;2023-09-30T10:17:00;1034.73;;;959.23;;
19537;SDS011;9914;51.008;4.300;2023-09-30T10:19:28;1067.67;;;979.50;;
19537;SDS011;9914;51.008;4.300;2023-09-30T10:24:53;934.07;;;875.27;;
19537;SDS011;9914;51.008;4.300;2023-09-30T10:29:54;956.07;;;895.83;;
19537;SDS011;9914;51.008;4.300;2023-09-30T10:36:00;1093.67;;;999.90;;
19537;SDS011;9914;51.008;4.300;2023-09-30T10:40:50;1024.10;;;953.23;;
19537;SDS011;9914;51.008;4.300;2023-09-30T10:43:29;993.77;;;926.63;;
19537;SDS011;9914;51.008;4.300;2023-09-30T10:45:59;1057.33;;;981.93;;
19537;SDS011;9914;51.008;4.300;2023-09-30T10:50:55;1049.77;;;975.57;;
19537;SDS011;9914;51.008;4.300;2023-09-30T10:53:29;1061.20;;;984.50;;
19537;SDS011;9914;51.008;4.300;2023-09-30T10:55:59;1123.80;;;999.90;;
19537;SDS011;9914;51.008;4.300;2023-09-30T10:58:41;1236.80;;;999.90;;
19537;SDS011;9914;51.008;4.300;2023-09-30T11:01:08;1199.03;;;999.90;;
19537;SDS011;9914;51.008;4.300;2023-09-30T11:03:34;1189.87;;;999.90;;
19537;SDS011;9914;51.008;4.300;2023-09-30T11:06:00;1206.13;;;999.90;;
19537;SDS011;9914;51.008;4.300;2023-09-30T11:08:27;1258.17;;;999.90;;
19537;SDS011;9914;51.008;4.300;2023-09-30T11:10:57;1288.60;;;999.90;;
19537;SDS011;9914;51.008;4.300;2023-09-30T11:13:25;1229.10;;;999.90;;
19537;SDS011;9914;51.008;4.300;2023-09-30T11:16:01;1295.80;;;999.90;;
19537;SDS011;9914;51.008;4.300;2023-09-30T11:18:29;1233.93;;;999.90;;
19537;SDS011;9914;51.008;4.300;2023-09-30T11:21:06;1254.47;;;999.90;;
19537;SDS011;9914;51.008;4.300;2023-09-30T11:23:33;1242.07;;;999.90;;
19537;SDS011;9914;51.008;4.300;2023-09-30T11:26:01;1188.93;;;999.90;;
19537;SDS011;9914;51.008;4.300;2023-09-30T11:28:35;1242.63;;;999.90;;
19537;SDS011;9914;51.008;4.300;2023-09-30T11:31:02;1174.93;;;999.90;;
19537;SDS011;9914;51.008;4.300;2023-09-30T11:33:29;1227.37;;;999.90;;
19537;SDS011;9914;51.008;4.300;2023-09-30T11:36:02;1194.40;;;999.90;;
19537;SDS011;9914;51.008;4.300;2023-09-30T11:38:28;1246.50;;;999.90;;
19537;SDS011;9914;51.008;4.300;2023-09-30T11:41:01;1168.27;;;999.90;;
19537;SDS011;9914;51.008;4.300;2023-09-30T11:43:30;1189.90;;;999.90;;
19537;SDS011;9914;51.008;4.300;2023-09-30T11:46:09;1173.07;;;999.90;;
19537;SDS011;9914;51.008;4.300;2023-09-30T11:48:40;1133.40;;;999.90;;
19537;SDS011;9914;51.008;4.300;2023-09-30T11:51:27;1093.07;;;999.90;;
19537;SDS011;9914;51.008;4.300;2023-09-30T11:53:54;1094.03;;;999.90;;
19537;SDS011;9914;51.008;4.300;2023-09-30T11:56:22;1152.53;;;999.90;;
19537;SDS011;9914;51.008;4.300;2023-09-30T11:58:53;1141.27;;;999.90;;
19537;SDS011;9914;51.008;4.300;2023-09-30T12:01:19;1119.13;;;999.90;;
19537;SDS011;9914;51.008;4.300;2023-09-30T12:03:47;1111.40;;;999.90;;
19537;SDS011;9914;51.008;4.300;2023-09-30T12:06:13;1109.70;;;999.90;;
19537;SDS011;9914;51.008;4.300;2023-09-30T12:08:41;1090.77;;;999.90;;
19537;SDS011;9914;51.008;4.300;2023-09-30T12:11:07;1127.50;;;999.90;;
19537;SDS011;9914;51.008;4.300;2023-09-30T12:13:32;1126.17;;;999.90;;
19537;SDS011;9914;51.008;4.300;2023-09-30T12:15:58;1117.93;;;999.90;;
19537;SDS011;9914;51.008;4.300;2023-09-30T12:18:24;1135.93;;;999.90;;
19537;SDS011;9914;51.008;4.300;2023-09-30T12:20:50;1148.77;;;999.90;;
19537;SDS011;9914;51.008;4.300;2023-09-30T12:23:17;1198.10;;;999.90;;
19537;SDS011;9914;51.008;4.300;2023-09-30T12:25:43;1128.90;;;999.90;;
19537;SDS011;9914;51.008;4.300;2023-09-30T12:28:09;1117.07;;;999.90;;
19537;SDS011;9914;51.008;4.300;2023-09-30T12:30:35;1164.03;;;999.90;;
19537;SDS011;9914;51.008;4.300;2023-09-30T12:33:01;1159.60;;;999.90;;
19537;SDS011;9914;51.008;4.300;2023-09-30T12:35:27;1168.27;;;999.90;;
19537;SDS011;9914;51.008;4.300;2023-09-30T12:37:52;1171.73;;;999.90;;
19537;SDS011;9914;51.008;4.300;2023-09-30T12:40:18;1178.47;;;999.90;;
19537;SDS011;9914;51.008;4.300;2023-09-30T12:42:44;1196.90;;;999.90;;
19537;SDS011;9914;51.008;4.300;2023-09-30T12:45:10;1179.43;;;999.90;;
19537;SDS011;9914;51.008;4.300;2023-09-30T12:47:37;1185.47;;;999.90;;
19537;SDS011;9914;51.008;4.300;2023-09-30T12:50:03;1306.83;;;999.90;;
19537;SDS011;9914;51.008;4.300;2023-09-30T12:52:29;1171.73;;;999.90;;
19537;SDS011;9914;51.008;4.300;2023-09-30T12:54:57;1189.73;;;999.90;;
19537;SDS011;9914;51.008;4.300;2023-09-30T12:57:23;1180.03;;;999.90;;
19537;SDS011;9914;51.008;4.300;2023-09-30T12:59:48;1277.23;;;999.90;;
19537;SDS011;9914;51.008;4.300;2023-09-30T13:02:15;1127.00;;;999.90;;
19537;SDS011;9914;51.008;4.300;2023-09-30T13:04:43;1153.23;;;999.90;;
19537;SDS011;9914;51.008;4.300;2023-09-30T13:07:09;1245.37;;;999.90;;
19537;SDS011;9914;51.008;4.300;2023-09-30T13:09:36;1174.53;;;999.90;;
19537;SDS011;9914;51.008;4.300;2023-09-30T13:12:06;1166.30;;;999.90;;
19537;SDS011;9914;51.008;4.300;2023-09-30T13:14:32;1130.40;;;999.90;;
19537;SDS011;9914;51.008;4.300;2023-09-30T13:16:58;1160.77;;;999.90;;
19537;SDS011;9914;51.008;4.300;2023-09-30T13:19:23;1189.50;;;999.90;;
19537;SDS011;9914;51.008;4.300;2023-09-30T13:21:49;1147.57;;;999.90;;
19537;SDS011;9914;51.008;4.300;2023-09-30T13:24:17;1186.60;;;999.90;;
19537;SDS011;9914;51.008;4.300;2023-09-30T13:26:43;1164.97;;;999.90;;
19537;SDS011;9914;51.008;4.300;2023-09-30T13:29:09;1042.90;;;974.50;;
19537;SDS011;9914;51.008;4.300;2023-09-30T13:31:36;1120.80;;;999.90;;
19537;SDS011;9914;51.008;4.300;2023-09-30T13:34:03;1098.83;;;999.90;;
19537;SDS011;9914;51.008;4.300;2023-09-30T13:36:29;1164.40;;;999.90;;
19537;SDS011;9914;51.008;4.300;2023-09-30T13:38:55;1151.20;;;999.90;;
19537;SDS011;9914;51.008;4.300;2023-09-30T13:41:21;1118.37;;;999.90;;
19537;SDS011;9914;51.008;4.300;2023-09-30T13:43:47;1128.57;;;999.90;;
19537;SDS011;9914;51.008;4.300;2023-09-30T13:46:13;1189.27;;;999.90;;
19537;SDS011;9914;51.008;4.300;2023-09-30T13:48:38;1167.03;;;999.90;;
19537;SDS011;9914;51.008;4.300;2023-09-30T13:51:07;1080.80;;;999.90;;
19537;SDS011;9914;51.008;4.300;2023-09-30T13:53:34;1107.97;;;999.90;;
19537;SDS011;9914;51.008;4.300;2023-09-30T13:56:00;1114.63;;;999.90;;
19537;SDS011;9914;51.008;4.300;2023-09-30T13:58:26;1109.47;;;999.90;;
19537;SDS011;9914;51.008;4.300;2023-09-30T14:00:51;1192.13;;;999.90;;
19537;SDS011;9914;51.008;4.300;2023-09-30T14:03:20;1087.47;;;999.90;;
19537;SDS011;9914;51.008;4.300;2023-09-30T14:05:46;1173.00;;;999.90;;
19537;SDS011;9914;51.008;4.300;2023-09-30T14:08:12;1121.33;;;999.90;;
19537;SDS011;9914;51.008;4.300;2023-09-30T14:10:38;1118.93;;;999.90;;